Time;durP1;ratioP1;P1;durP2;ratioP2;P2;SDS_P1;SDS_P2;PMS_P1;PMS_P2;Temp;Humidity;BMP_temperature;BMP_pressure;BME280_temperature;BME280_humidity;BME280_pressure;Samples;Min_cycle;Max_cycle;Signal;HPM_P1;HPM_P2
2021/09/09 00:01:50;;;;;;;0.20;0.20;;;;;;;8.80;73.42;97565.31;6184095;23;20088;-64
2021/09/09 00:04:19;;;;;;;0.20;0.20;;;;;;;8.83;73.33;97571.09;6184287;23;20013;-64
2021/09/09 00:06:46;;;;;;;0.10;0.10;;;;;;;8.86;73.33;97567.03;6183979;23;20013;-65
2021/09/09 00:09:13;;;;;;;0.20;0.20;;;;;;;8.88;73.41;97568.44;6159057;23;20075;-64
2021/09/09 00:11:40;;;;;;;0.70;0.38;;;;;;;8.88;73.26;97571.19;6184090;23;20009;-64
2021/09/09 00:14:11;;;;;;;0.10;0.10;;;;;;;8.89;73.37;97567.38;6184074;23;20013;-64
2021/09/09 00:16:39;;;;;;;0.25;0.25;;;;;;;8.91;73.16;97564.38;6183972;23;20044;-63
2021/09/09 00:19:07;;;;;;;0.20;0.20;;;;;;;8.90;73.23;97555.31;6158890;23;20016;-63
2021/09/09 00:21:33;;;;;;;0.20;0.20;;;;;;;8.94;73.20;97563.88;6159001;23;20012;-63
2021/09/09 00:24:00;;;;;;;0.20;0.20;;;;;;;8.96;73.37;97561.69;6158515;23;20013;-63
2021/09/09 00:26:27;;;;;;;0.17;0.17;;;;;;;8.97;73.38;97559.78;6183858;23;20408;-62
2021/09/09 00:28:56;;;;;;;0.20;0.20;;;;;;;8.97;73.24;97557.88;6183435;23;20009;-62
2021/09/09 00:31:26;;;;;;;0.25;0.25;;;;;;;8.97;73.36;97549.66;6184075;23;20009;-62
2021/09/09 00:33:54;;;;;;;0.50;0.50;;;;;;;8.98;73.54;97548.59;6183876;23;20095;-63
2021/09/09 00:36:21;;;;;;;0.20;0.20;;;;;;;9.00;73.49;97543.66;6158966;23;20023;-62
2021/09/09 00:38:48;;;;;;;0.22;0.20;;;;;;;9.04;73.48;97547.56;6183638;23;20033;-61
2021/09/09 00:41:16;;;;;;;0.22;0.22;;;;;;;9.06;73.24;97539.91;6185517;23;20087;-62
2021/09/09 00:43:45;;;;;;;0.68;0.68;;;;;;;9.09;73.34;97533.09;6183316;23;20017;-64
2021/09/09 00:46:12;;;;;;;0.20;0.20;;;;;;;9.08;73.46;97532.28;6183430;23;20021;-63
2021/09/09 00:48:40;;;;;;;0.30;0.30;;;;;;;9.09;73.22;97533.91;6183906;23;20040;-63
2021/09/09 00:51:08;;;;;;;0.20;0.20;;;;;;;9.09;73.36;97536.66;6183483;23;20025;-64
2021/09/09 00:53:38;;;;;;;0.45;0.45;;;;;;;9.09;73.39;97525.69;6183742;23;20023;-63
2021/09/09 00:56:05;;;;;;;0.30;0.30;;;;;;;9.10;73.30;97519.16;6183666;23;20358;-61
2021/09/09 00:58:34;;;;;;;0.10;0.10;;;;;;;9.14;73.46;97521.38;6183049;23;20017;-64
2021/09/09 01:01:03;;;;;;;0.32;0.32;;;;;;;9.15;73.28;97526.59;6158740;23;20449;-62
2021/09/09 01:03:31;;;;;;;0.20;0.20;;;;;;;9.16;73.40;97527.41;6183822;23;20525;-66
2021/09/09 01:06:00;;;;;;;0.10;0.10;;;;;;;9.14;73.48;97521.38;6183591;23;20013;-63
2021/09/09 01:08:30;;;;;;;0.25;0.25;;;;;;;9.12;73.30;97516.97;6183521;23;20009;-63
2021/09/09 01:10:59;;;;;;;2.72;0.63;;;;;;;9.14;73.24;97518.63;6183735;23;20513;-64
2021/09/09 01:13:31;;;;;;;0.20;0.20;;;;;;;9.14;73.23;97521.38;6183643;23;20047;-63
2021/09/09 01:15:59;;;;;;;0.30;0.30;;;;;;;9.12;73.28;97510.66;6183251;23;20013;-64
2021/09/09 01:18:27;;;;;;;0.20;0.20;;;;;;;9.11;73.26;97509.84;6183438;23;20009;-63
2021/09/09 01:20:56;;;;;;;0.20;0.20;;;;;;;9.11;73.31;97504.38;6158559;23;20117;-63
2021/09/09 01:23:27;;;;;;;0.10;0.10;;;;;;;9.12;73.37;97500.53;6183121;23;20374;-63
2021/09/09 01:25:53;;;;;;;0.30;0.30;;;;;;;9.13;73.24;97501.38;6158520;23;20024;-65
2021/09/09 01:28:22;;;;;;;0.10;0.10;;;;;;;9.12;73.46;97500.53;6182757;23;20362;-63
2021/09/09 01:30:48;;;;;;;0.40;0.40;;;;;;;9.13;73.54;97501.38;6184885;23;20398;-62
2021/09/09 01:33:18;;;;;;;0.57;0.40;;;;;;;9.14;73.52;97494.78;6158261;23;20016;-62
2021/09/09 01:35:46;;;;;;;0.10;0.10;;;;;;;9.16;73.37;97492.66;6183244;23;20020;-63
2021/09/09 01:38:21;;;;;;;0.28;0.28;;;;;;;9.18;73.38;97482.25;6183181;23;20454;-62
2021/09/09 01:40:50;;;;;;;0.35;0.35;;;;;;;9.18;73.46;97484.16;6158264;23;20028;-63
2021/09/09 01:43:17;;;;;;;0.20;0.20;;;;;;;9.19;73.51;97481.16;6182848;23;20048;-62
2021/09/09 01:45:44;;;;;;;0.30;0.30;;;;;;;9.18;73.34;97478.69;6158074;23;20017;-63
2021/09/09 01:48:13;;;;;;;0.50;0.50;;;;;;;9.17;73.46;97480.63;6158189;23;20362;-62
2021/09/09 01:50:40;;;;;;;0.30;0.30;;;;;;;9.17;73.30;97475.13;6182738;23;20458;-62
2021/09/09 01:53:10;;;;;;;0.50;0.50;;;;;;;9.19;73.33;97466.66;6182642;23;20021;-62
2021/09/09 01:55:39;;;;;;;0.20;0.20;;;;;;;9.21;73.33;97469.97;6183409;23;20013;-66
2021/09/09 01:58:06;;;;;;;0.20;0.20;;;;;;;9.23;73.33;97468.63;6182413;23;20029;-64
2021/09/09 02:00:35;;;;;;;0.30;0.30;;;;;;;9.26;73.15;97456.28;6158055;23;20111;-62
2021/09/09 02:03:03;;;;;;;0.17;0.17;;;;;;;9.25;73.23;97450.00;6182401;23;20382;-63
2021/09/09 02:05:30;;;;;;;0.15;0.15;;;;;;;9.25;73.18;97450.00;6182886;23;20017;-63
2021/09/09 02:07:57;;;;;;;0.20;0.20;;;;;;;9.26;73.36;97457.13;6182709;23;20330;-65
2021/09/09 02:10:26;;;;;;;0.20;0.20;;;;;;;9.27;73.27;97453.28;6158337;23;20009;-63
2021/09/09 02:12:56;;;;;;;0.40;0.40;;;;;;;9.27;73.38;97449.75;6183131;23;20020;-63
2021/09/09 02:15:24;;;;;;;0.20;0.20;;;;;;;9.29;73.51;97450.31;6158159;23;20012;-63
2021/09/09 02:17:54;;;;;;;0.40;0.40;;;;;;;9.29;73.06;97451.13;6182944;23;20334;-63
2021/09/09 02:20:23;;;;;;;0.20;0.20;;;;;;;9.29;73.43;97444.84;6182794;23;20023;-64
2021/09/09 02:22:52;;;;;;;0.22;0.22;;;;;;;9.31;73.54;97441.84;6182636;23;20044;-63
2021/09/09 02:25:19;;;;;;;0.20;0.20;;;;;;;9.34;73.39;97442.13;6182275;23;20405;-63
2021/09/09 02:27:50;;;;;;;0.43;0.43;;;;;;;9.36;73.18;97439.94;6157376;23;20039;-61
2021/09/09 02:30:20;;;;;;;0.30;0.30;;;;;;;9.39;73.20;97433.97;6182862;23;20445;-61
2021/09/09 02:32:48;;;;;;;0.20;0.20;;;;;;;9.41;73.14;97429.06;6182600;23;20032;-64
2021/09/09 02:35:16;;;;;;;0.40;0.40;;;;;;;9.43;73.19;97429.59;6182664;23;20009;-62
2021/09/09 02:37:44;;;;;;;0.20;0.20;;;;;;;9.47;73.18;97427.19;6158151;23;20072;-62
2021/09/09 02:40:14;;;;;;;0.20;0.20;;;;;;;9.52;72.99;97420.91;6182895;23;20072;-64
2021/09/09 02:42:41;;;;;;;0.10;0.10;;;;;;;9.54;72.95;97405.88;6184610;23;20040;-61
2021/09/09 02:45:10;;;;;;;0.20;0.20;;;;;;;9.57;72.95;97396.28;6157701;23;20067;-62
2021/09/09 02:47:39;;;;;;;0.22;0.22;;;;;;;9.64;72.70;97405.09;6182836;23;20442;-62
2021/09/09 02:50:08;;;;;;;0.25;0.22;;;;;;;9.71;72.59;97400.22;6157584;23;20358;-62
2021/09/09 02:52:37;;;;;;;0.30;0.30;;;;;;;9.77;72.24;97399.16;6157859;23;20480;-62
2021/09/09 02:55:04;;;;;;;0.20;0.20;;;;;;;9.87;72.31;97394.84;6182543;23;20361;-64
2021/09/09 02:57:32;;;;;;;0.20;0.20;;;;;;;9.92;72.37;97386.63;6182736;23;20020;-62
2021/09/09 03:00:01;;;;;;;0.20;0.20;;;;;;;9.91;72.16;97383.09;6156322;23;20020;-63
2021/09/09 03:02:30;;;;;;;0.20;0.20;;;;;;;9.93;72.29;97388.28;6182455;23;20013;-62
2021/09/09 03:04:58;;;;;;;2.80;0.85;;;;;;;9.97;72.18;97386.69;6182267;23;20013;-61
2021/09/09 03:07:26;;;;;;;0.30;0.30;;;;;;;9.99;72.20;97382.56;6181362;23;20013;-64
2021/09/09 03:09:55;;;;;;;0.20;0.20;;;;;;;10.00;72.01;97386.97;6182565;23;20017;-62
2021/09/09 03:12:23;;;;;;;0.10;0.10;;;;;;;10.04;72.14;97389.16;6182780;23;20452;-63
2021/09/09 03:14:51;;;;;;;0.20;0.20;;;;;;;10.03;72.20;97382.88;6158596;23;20037;-63
2021/09/09 03:17:20;;;;;;;0.10;0.10;;;;;;;10.05;72.12;97386.16;6183270;23;20016;-62
2021/09/09 03:19:47;;;;;;;0.38;0.38;;;;;;;10.07;72.00;97383.16;6158524;23;20017;-64
2021/09/09 03:22:16;;;;;;;0.30;0.20;;;;;;;10.18;71.60;97374.69;6158892;23;20454;-64
2021/09/09 03:24:45;;;;;;;0.20;0.20;;;;;;;10.37;71.49;97367.97;6183261;23;20473;-62
2021/09/09 03:27:13;;;;;;;0.20;0.20;;;;;;;10.48;71.09;97364.97;6182578;23;20103;-64
2021/09/09 03:29:41;;;;;;;0.20;0.20;;;;;;;10.61;70.50;97374.59;6158288;23;20062;-63
2021/09/09 03:32:11;;;;;;;0.38;0.38;;;;;;;10.63;70.55;97364.19;6183043;23;20092;-63
2021/09/09 03:34:39;;;;;;;0.30;0.30;;;;;;;10.64;70.59;97365.81;6183203;23;20040;-62
2021/09/09 03:37:08;;;;;;;0.20;0.20;;;;;;;10.71;70.47;97373.81;6183020;23;20037;-62
2021/09/09 03:39:35;;;;;;;0.25;0.25;;;;;;;10.77;70.44;97359.00;6182864;23;20092;-62
2021/09/09 03:42:08;;;;;;;0.20;0.20;;;;;;;10.85;70.46;97361.22;6182788;23;20115;-64
2021/09/09 03:44:37;;;;;;;0.20;0.20;;;;;;;10.92;70.24;97371.09;6182928;23;20468;-63
2021/09/09 03:47:06;;;;;;;0.20;0.20;;;;;;;10.86;70.45;97357.38;6183222;23;20327;-62
2021/09/09 03:49:36;;;;;;;0.20;0.20;;;;;;;10.83;70.52;97355.16;6182855;23;20013;-63
2021/09/09 03:52:02;;;;;;;0.35;0.35;;;;;;;10.84;70.48;97354.06;6184589;23;20083;-63
2021/09/09 03:54:31;;;;;;;0.38;0.38;;;;;;;10.89;70.56;97350.50;6183119;23;20012;-63
2021/09/09 03:56:59;;;;;;;0.20;0.20;;;;;;;10.90;70.58;97354.09;6183117;23;20016;-62
2021/09/09 03:59:27;;;;;;;0.25;0.25;;;;;;;10.87;70.63;97348.03;6157339;23;20442;-63
2021/09/09 04:01:56;;;;;;;0.20;0.20;;;;;;;10.84;70.56;97348.56;6157913;23;20040;-63
2021/09/09 04:04:24;;;;;;;0.47;0.43;;;;;;;10.82;70.54;97355.44;6182955;23;20465;-62
2021/09/09 04:06:52;;;;;;;0.63;0.55;;;;;;;10.86;70.55;97353.78;6182140;23;20009;-63
2021/09/09 04:09:21;;;;;;;0.15;0.15;;;;;;;10.95;70.43;97356.81;6182586;23;20013;-63
2021/09/09 04:11:50;;;;;;;0.20;0.20;;;;;;;11.07;70.19;97351.91;6182631;23;20016;-62
2021/09/09 04:14:17;;;;;;;0.17;0.17;;;;;;;11.11;69.87;97355.75;6157825;23;20055;-63
2021/09/09 04:16:44;;;;;;;5.15;0.60;;;;;;;11.20;69.94;97350.53;6158045;23;20013;-61
2021/09/09 04:19:11;;;;;;;0.30;0.30;;;;;;;11.30;69.79;97355.19;6184412;23;20059;-63
2021/09/09 04:21:42;;;;;;;0.20;0.20;;;;;;;11.37;69.71;97339.25;6182398;23;20453;-63
2021/09/09 04:24:12;;;;;;;0.20;0.20;;;;;;;11.45;69.34;97341.44;6182779;23;20013;-63
2021/09/09 04:26:40;;;;;;;0.75;0.43;;;;;;;11.38;69.24;97329.91;6182518;23;20072;-63
2021/09/09 04:29:06;;;;;;;0.28;0.28;;;;;;;11.33;69.62;97324.41;6182112;23;20298;-63
2021/09/09 04:31:35;;;;;;;0.20;0.20;;;;;;;11.43;69.54;97329.91;6182780;23;20017;-62
2021/09/09 04:34:03;;;;;;;0.20;0.20;;;;;;;11.55;69.04;97326.88;6182507;23;20013;-63
2021/09/09 04:36:33;;;;;;;0.20;0.20;;;;;;;11.66;68.77;97319.41;6182533;23;20021;-64
2021/09/09 04:39:01;;;;;;;0.10;0.10;;;;;;;12.01;67.99;97324.00;6182522;23;20088;-62
2021/09/09 04:41:29;;;;;;;0.32;0.32;;;;;;;12.31;67.52;97313.16;6182552;23;20083;-63
2021/09/09 04:43:59;;;;;;;0.10;0.10;;;;;;;12.37;67.23;97306.53;6157718;23;20005;-64
2021/09/09 04:46:26;;;;;;;0.40;0.40;;;;;;;12.47;67.17;97308.38;6181524;23;20091;-63
2021/09/09 04:48:53;;;;;;;0.50;0.50;;;;;;;12.49;67.19;97312.50;6182653;23;20039;-64
2021/09/09 04:51:22;;;;;;;0.55;0.30;;;;;;;12.41;67.27;97294.66;6182351;23;20028;-63
2021/09/09 04:53:50;;;;;;;0.20;0.20;;;;;;;12.29;67.92;97290.59;6156556;23;20020;-62
2021/09/09 04:56:21;;;;;;;0.20;0.20;;;;;;;12.09;68.35;97295.13;6182544;23;20095;-63
2021/09/09 04:58:49;;;;;;;0.20;0.20;;;;;;;12.07;68.31;97294.56;6172446;23;20096;-63
2021/09/09 05:01:18;;;;;;;0.10;0.10;;;;;;;12.35;67.65;97294.97;6155934;23;20135;-63
2021/09/09 05:03:45;;;;;;;0.40;0.40;;;;;;;12.62;67.08;97287.09;6183725;23;20017;-64
2021/09/09 05:06:14;;;;;;;0.20;0.20;;;;;;;12.76;66.62;97294.72;6158347;23;20108;-63
2021/09/09 05:08:43;;;;;;;0.20;0.20;;;;;;;12.74;66.70;97267.47;6183683;23;20040;-63
2021/09/09 05:11:11;;;;;;;0.70;0.70;;;;;;;12.71;67.14;97287.31;6183847;23;20441;-64
2021/09/09 05:13:43;;;;;;;0.30;0.30;;;;;;;12.57;67.15;97270.63;6158941;23;20012;-65
2021/09/09 05:16:11;;;;;;;0.38;0.38;;;;;;;12.47;67.70;97289.97;6158737;23;20013;-61
2021/09/09 05:18:40;;;;;;;0.32;0.20;;;;;;;12.41;67.71;97302.09;6183580;23;20016;-64
2021/09/09 05:21:08;;;;;;;0.20;0.20;;;;;;;12.34;67.74;97291.41;6183131;23;20435;-64
2021/09/09 05:23:35;;;;;;;0.20;0.20;;;;;;;12.32;67.83;97290.03;6182974;23;20036;-63
2021/09/09 05:26:04;;;;;;;0.30;0.30;;;;;;;12.27;68.03;97275.19;6182809;23;20021;-62
2021/09/09 05:28:30;;;;;;;0.28;0.28;;;;;;;12.33;67.91;97291.69;6178096;23;20013;-63
2021/09/09 05:30:59;;;;;;;0.57;0.22;;;;;;;12.44;67.63;97276.78;6157670;23;20386;-63
2021/09/09 05:33:27;;;;;;;0.38;0.38;;;;;;;12.49;67.21;97273.16;6183246;23;20331;-63
2021/09/09 05:35:56;;;;;;;0.10;0.10;;;;;;;12.51;67.32;97273.69;6183319;23;20012;-64
2021/09/09 05:38:23;;;;;;;0.10;0.10;;;;;;;12.42;67.32;97281.72;6183640;23;20039;-63
2021/09/09 05:40:51;;;;;;;0.17;0.17;;;;;;;12.42;67.21;97279.78;6158392;23;20362;-62
2021/09/09 05:43:20;;;;;;;0.10;0.10;;;;;;;12.60;66.85;97271.97;6183189;23;20460;-63
2021/09/09 05:45:49;;;;;;;0.38;0.38;;;;;;;12.66;66.61;97275.50;6183273;23;20020;-62
2021/09/09 05:48:18;;;;;;;0.22;0.22;;;;;;;12.55;67.01;97272.00;6183426;23;20450;-63
2021/09/09 05:50:46;;;;;;;0.17;0.17;;;;;;;12.39;67.53;97276.78;6183222;23;20394;-63
2021/09/09 05:53:13;;;;;;;0.10;0.10;;;;;;;12.33;67.76;97275.19;6185514;23;20013;-62
2021/09/09 05:55:41;;;;;;;0.30;0.30;;;;;;;12.33;67.63;97255.91;6182966;23;20009;-62
2021/09/09 05:58:09;;;;;;;0.17;0.17;;;;;;;12.39;67.36;97263.03;6182335;23;20449;-63
2021/09/09 06:00:37;;;;;;;0.52;0.40;;;;;;;12.46;67.28;97254.47;6158659;23;20017;-63
2021/09/09 06:03:07;;;;;;;0.50;0.50;;;;;;;12.55;66.79;97256.31;6182952;23;20035;-62
2021/09/09 06:05:36;;;;;;;0.20;0.20;;;;;;;12.60;66.78;97250.78;6183084;23;20354;-63
2021/09/09 06:08:07;;;;;;;0.35;0.35;;;;;;;12.59;66.64;97249.13;6184813;23;20036;-63
2021/09/09 06:10:35;;;;;;;0.43;0.43;;;;;;;12.56;66.63;97246.13;6158317;23;20445;-63
2021/09/09 06:13:05;;;;;;;0.25;0.25;;;;;;;12.58;66.53;97233.69;6183180;23;20402;-63
2021/09/09 06:15:34;;;;;;;0.20;0.20;;;;;;;12.47;66.88;97239.56;6183518;23;20033;-62
2021/09/09 06:18:02;;;;;;;0.22;0.22;;;;;;;12.39;67.28;97244.56;6182850;23;20448;-62
2021/09/09 06:20:30;;;;;;;0.80;0.80;;;;;;;12.34;67.45;97243.81;6183010;23;20108;-63
2021/09/09 06:22:58;;;;;;;0.17;0.17;;;;;;;12.33;67.05;97237.47;6183266;23;20013;-63
2021/09/09 06:25:26;;;;;;;0.20;0.20;;;;;;;12.34;66.91;97227.28;6157728;23;20021;-63
2021/09/09 06:27:54;;;;;;;0.17;0.15;;;;;;;12.35;67.21;97226.16;6182043;23;20020;-63
2021/09/09 06:30:22;;;;;;;0.10;0.10;;;;;;;12.43;66.97;97240.16;6157197;23;20413;-64
2021/09/09 06:32:50;;;;;;;0.52;0.50;;;;;;;12.49;66.43;97245.63;6184845;23;20080;-63
2021/09/09 06:35:21;;;;;;;0.20;0.20;;;;;;;12.61;66.52;97230.38;6183098;23;20051;-62
2021/09/09 06:37:50;;;;;;;0.10;0.10;;;;;;;12.64;66.09;97225.41;6182856;23;20373;-63
2021/09/09 06:40:18;;;;;;;0.25;0.25;;;;;;;12.60;66.33;97223.25;6182755;23;20016;-63
2021/09/09 06:42:47;;;;;;;0.30;0.30;;;;;;;12.65;66.36;97219.63;6158282;23;20013;-62
2021/09/09 06:45:16;;;;;;;1.23;0.40;;;;;;;12.74;65.79;97208.81;6182989;23;20091;-62
2021/09/09 06:47:44;;;;;;;0.52;0.32;;;;;;;12.83;65.86;97212.59;6182731;23;20064;-62
2021/09/09 06:50:12;;;;;;;1.02;0.73;;;;;;;12.93;65.36;97218.00;6182659;23;20009;-62
2021/09/09 06:52:40;;;;;;;0.35;0.35;;;;;;;13.14;64.83;97187.50;6128563;23;20029;-62
2021/09/09 06:55:08;;;;;;;0.38;0.35;;;;;;;13.31;64.59;97201.66;6153056;23;20446;-63
2021/09/09 06:57:37;;;;;;;0.30;0.30;;;;;;;13.38;64.23;97195.81;6154116;23;20033;-64
2021/09/09 07:00:05;;;;;;;0.10;0.10;;;;;;;13.46;64.01;97192.41;6153159;23;20025;-63
2021/09/09 07:02:33;;;;;;;0.10;0.10;;;;;;;13.53;64.02;97196.75;6153166;23;20020;-63
2021/09/09 07:05:01;;;;;;;0.10;0.10;;;;;;;13.48;64.08;97192.13;6152935;23;20037;-64
2021/09/09 07:07:29;;;;;;;0.40;0.40;;;;;;;13.44;64.34;97183.63;6153046;23;20013;-64
2021/09/09 07:09:57;;;;;;;0.98;0.47;;;;;;;13.50;64.42;97184.41;6153356;23;20010;-64
2021/09/09 07:12:25;;;;;;;0.30;0.30;;;;;;;13.35;64.62;97174.34;6128591;23;20014;-63
2021/09/09 07:14:55;;;;;;;0.17;0.17;;;;;;;13.18;65.07;97179.47;6128614;23;20518;-63
2021/09/09 07:17:23;;;;;;;0.30;0.30;;;;;;;13.15;65.19;97178.94;6128324;23;20045;-64
2021/09/09 07:19:50;;;;;;;0.30;0.30;;;;;;;13.24;64.75;97170.84;6153096;23;20391;-64
2021/09/09 07:22:20;;;;;;;0.20;0.20;;;;;;;13.28;64.96;97160.88;6152718;23;20358;-62
2021/09/09 07:24:48;;;;;;;0.55;0.28;;;;;;;13.18;65.14;97183.06;6128388;23;20018;-63
2021/09/09 07:27:16;;;;;;;0.13;0.13;;;;;;;13.13;65.13;97172.91;6128445;23;20343;-63
2021/09/09 07:29:44;;;;;;;0.20;0.20;;;;;;;13.15;65.07;97161.59;6152955;23;20480;-63
2021/09/09 07:32:15;;;;;;;0.20;0.20;;;;;;;13.13;65.09;97158.28;6152963;23;20014;-63
2021/09/09 07:34:45;;;;;;;0.98;0.98;;;;;;;13.15;64.96;97156.09;6128242;23;20017;-63
2021/09/09 07:37:12;;;;;;;0.40;0.40;;;;;;;13.17;65.15;97156.59;6128313;23;20331;-63
2021/09/09 07:39:39;;;;;;;0.50;0.50;;;;;;;13.15;64.90;97156.88;6128359;23;20013;-63
2021/09/09 07:42:06;;;;;;;0.10;0.10;;;;;;;13.28;64.59;97154.53;6152446;23;20009;-65
2021/09/09 07:44:33;;;;;;;0.30;0.30;;;;;;;13.30;64.57;97153.13;6154647;23;20021;-63
2021/09/09 07:47:02;;;;;;;0.47;0.47;;;;;;;13.44;64.49;97146.94;6152683;23;20459;-63
2021/09/09 07:49:32;;;;;;;0.73;0.73;;;;;;;13.65;63.98;97148.34;6128323;23;20017;-62
2021/09/09 07:52:00;;;;;;;0.10;0.10;;;;;;;13.99;62.81;97129.97;6149937;23;20036;-64
2021/09/09 07:54:27;;;;;;;0.30;0.30;;;;;;;14.24;62.47;97120.47;6184774;23;20009;-64
2021/09/09 07:56:55;;;;;;;0.30;0.30;;;;;;;14.37;62.11;97138.22;6184439;23;20353;-65
2021/09/09 07:59:24;;;;;;;0.20;0.20;;;;;;;14.30;62.38;97135.81;6158822;23;20016;-63
2021/09/09 08:01:51;;;;;;;0.15;0.15;;;;;;;14.31;62.56;97129.19;6184313;23;20009;-63
2021/09/09 08:04:19;;;;;;;0.10;0.10;;;;;;;14.36;62.47;97123.56;6183881;23;20012;-63
2021/09/09 08:06:47;;;;;;;0.47;0.40;;;;;;;14.41;62.31;97113.56;6159398;23;20013;-64
2021/09/09 08:09:15;;;;;;;0.32;0.20;;;;;;;14.20;62.81;97109.19;6159312;23;20098;-63
2021/09/09 08:11:44;;;;;;;0.10;0.10;;;;;;;13.90;63.57;97118.78;6159452;23;20115;-65
2021/09/09 08:14:13;;;;;;;0.25;0.25;;;;;;;13.78;63.73;97115.63;6184118;23;20009;-64
2021/09/09 08:16:41;;;;;;;0.63;0.63;;;;;;;13.87;63.48;97105.56;6184074;23;20079;-63
2021/09/09 08:19:09;;;;;;;0.25;0.25;;;;;;;14.04;62.98;97090.44;6159213;23;20100;-64
2021/09/09 08:21:38;;;;;;;0.20;0.20;;;;;;;14.10;62.98;97092.78;6184095;23;20017;-65
2021/09/09 08:24:06;;;;;;;0.20;0.20;;;;;;;14.12;62.94;97096.09;6184067;23;20445;-64
2021/09/09 08:26:36;;;;;;;0.38;0.38;;;;;;;14.04;62.91;97084.91;6183627;23;20017;-63
2021/09/09 08:29:05;;;;;;;0.30;0.30;;;;;;;14.04;62.94;97090.44;6183592;23;20456;-64
2021/09/09 08:31:32;;;;;;;0.30;0.30;;;;;;;14.20;62.66;97089.06;6184021;23;20014;-64
2021/09/09 08:34:01;;;;;;;0.10;0.10;;;;;;;14.40;61.94;97089.84;6184006;23;20009;-64
2021/09/09 08:36:30;;;;;;;0.20;0.20;;;;;;;14.54;61.61;97085.97;6184036;23;20054;-63
2021/09/09 08:38:58;;;;;;;0.20;0.20;;;;;;;14.58;61.69;97075.16;6183993;23;20015;-64
2021/09/09 08:41:26;;;;;;;0.73;0.68;;;;;;;14.44;61.94;97074.31;6183908;23;20016;-66
2021/09/09 08:43:52;;;;;;;0.40;0.40;;;;;;;14.16;62.69;97069.53;6184161;23;20036;-64
2021/09/09 08:46:19;;;;;;;0.10;0.10;;;;;;;13.75;63.78;97056.38;6158982;23;20016;-64
2021/09/09 08:48:48;;;;;;;0.30;0.30;;;;;;;13.54;64.02;97066.03;6158792;23;20017;-64
2021/09/09 08:51:16;;;;;;;0.10;0.10;;;;;;;13.40;64.30;97060.47;6185624;23;20406;-64
2021/09/09 08:53:45;;;;;;;0.10;0.10;;;;;;;13.28;64.66;97061.66;6184061;23;20087;-63
2021/09/09 08:56:16;;;;;;;0.75;0.73;;;;;;;13.16;64.93;97052.97;6183604;23;20013;-65
2021/09/09 08:58:43;;;;;;;0.50;0.50;;;;;;;13.11;64.96;97058.56;6184917;23;20398;-63
2021/09/09 09:01:17;;;;;;;1.08;0.60;;;;;;;13.07;64.77;97054.75;6158560;23;20028;-62
2021/09/09 09:03:57;;;;;;;0.20;0.20;;;;;;;13.14;64.50;97052.47;6183524;23;20036;-64
2021/09/09 09:06:26;;;;;;;0.20;0.20;;;;;;;13.41;63.83;97051.06;6158180;23;20017;-64
2021/09/09 09:08:56;;;;;;;0.32;0.32;;;;;;;13.75;63.18;97052.78;6183788;23;20466;-63
2021/09/09 09:11:30;;;;;;;0.10;0.10;;;;;;;14.15;62.23;97036.72;6185139;23;20013;-63
2021/09/09 09:13:58;;;;;;;0.20;0.20;;;;;;;14.40;61.50;97027.16;6158154;23;20017;-63
2021/09/09 09:16:26;;;;;;;0.10;0.10;;;;;;;14.35;61.61;97021.72;6183469;23;20021;-64
2021/09/09 09:18:57;;;;;;;0.57;0.32;;;;;;;14.12;62.29;97020.72;6177905;23;20012;-63
2021/09/09 09:21:25;;;;;;;0.35;0.35;;;;;;;13.81;63.27;97016.56;6178119;23;20019;-63
2021/09/09 09:23:56;;;;;;;0.60;0.60;;;;;;;13.66;63.81;97012.09;6155370;23;20037;-63
2021/09/09 09:26:23;;;;;;;0.25;0.25;;;;;;;13.53;64.32;97017.53;6155174;23;20096;-63
2021/09/09 09:28:56;;;;;;;0.20;0.20;;;;;;;13.35;64.58;97014.47;6180016;23;20111;-63
2021/09/09 09:31:27;;;;;;;0.10;0.10;;;;;;;13.09;65.24;97019.47;6180358;23;20381;-64
2021/09/09 09:33:56;;;;;;;0.30;0.30;;;;;;;12.88;65.48;97016.16;6155342;23;20072;-63
2021/09/09 09:36:35;;;;;;;0.30;0.30;;;;;;;12.65;66.35;97017.78;6155435;23;20028;-65
2021/09/09 09:39:10;;;;;;;0.25;0.25;;;;;;;12.37;67.02;97017.53;6181693;23;20040;-64
2021/09/09 09:41:58;;;;;;;0.20;0.20;;;;;;;12.21;67.11;97003.09;6180206;23;20044;-64
2021/09/09 09:44:34;;;;;;;0.17;0.17;;;;;;;12.37;66.88;96999.09;6181762;23;20100;-66
2021/09/09 09:47:15;;;;;;;0.10;0.10;;;;;;;12.73;65.65;97000.63;6179976;23;20020;-65
2021/09/09 09:53:54;;;;;;;0.30;0.30;;;;;;;13.47;64.15;96991.97;6170911;23;20035;-63
2021/09/09 09:56:59;;;;;;;0.10;0.10;;;;;;;13.48;63.87;96977.06;6179227;23;20504;-64
2021/09/09 09:59:45;;;;;;;;;;;;;;;13.24;64.81;96977.94;6181137;23;20020;-64
2021/09/09 10:09:40;;;;;;;0.20;0.20;;;;;;;12.36;67.23;96966.34;6176936;23;20023;-64
2021/09/09 10:12:46;;;;;;;0.20;0.20;;;;;;;12.20;67.16;96968.44;6176069;23;20012;-64
2021/09/09 10:19:14;;;;;;;0.30;0.30;;;;;;;12.42;66.59;96954.97;6176803;23;20051;-65
2021/09/09 10:22:06;;;;;;;0.10;0.10;;;;;;;12.37;66.48;96955.06;6172969;23;20013;-65
2021/09/09 10:25:20;;;;;;;0.45;0.45;;;;;;;12.32;66.69;96946.03;6178068;23;20013;-64
2021/09/09 10:28:25;;;;;;;0.10;0.10;;;;;;;12.22;66.99;96947.78;6179671;23;20438;-64
2021/09/09 10:31:21;;;;;;;;;;;;;;;12.12;66.88;96936.88;6181673;23;20083;-64
2021/09/09 10:48:02;;;;;;;0.30;0.30;;;;;;;11.90;66.88;96921.66;6166943;23;20075;-64
2021/09/09 11:00:52;;;;;;;0.20;0.20;;;;;;;11.53;67.79;96914.84;6180691;23;20366;-65
2021/09/09 11:03:56;;;;;;;0.17;0.17;;;;;;;11.54;67.62;96902.75;6181449;23;20017;-64
2021/09/09 11:07:01;;;;;;;0.10;0.10;;;;;;;11.53;67.72;96897.53;6180172;23;20017;-64
2021/09/09 11:09:47;;;;;;;;;;;;;;;11.44;67.89;96897.34;6182243;23;20020;-64
2021/09/09 11:16:14;;;;;;;0.20;0.20;;;;;;;11.13;68.52;96891.25;6176193;23;20070;-62
2021/09/09 11:19:00;;;;;;;;;;;;;;;11.00;68.69;96884.47;6181686;23;20020;-64
2021/09/09 11:28:52;;;;;;;0.17;0.17;;;;;;;10.93;68.79;96865.56;6175222;23;20024;-65
2021/09/09 11:31:37;;;;;;;;;;;;;;;10.87;68.77;96864.78;6183342;23;20068;-66
2021/09/09 11:38:05;;;;;;;0.30;0.30;;;;;;;10.79;68.86;96848.94;6180556;23;20071;-64
2021/09/09 11:45:05;;;;;;;2.63;0.30;;;;;;;10.63;69.46;96850.09;6183000;23;20172;-64
2021/09/09 11:51:34;;;;;;;0.25;0.25;;;;;;;10.44;69.52;96834.31;6169604;23;20024;-64
2021/09/09 11:54:20;;;;;;;;;;;;;;;10.36;69.78;96840.38;6178450;23;20032;-63
2021/09/09 12:00:51;;;;;;;0.40;0.40;;;;;;;10.33;69.68;96822.56;6166979;23;20028;-64
2021/09/09 12:03:37;;;;;;;;;;;;;;;10.36;69.51;96823.91;6183945;23;20059;-64
2021/09/09 12:10:14;;;;;;;0.60;0.60;;;;;;;10.47;69.36;96811.78;6182471;23;20087;-65
2021/09/09 12:16:54;;;;;;;0.55;0.55;;;;;;;10.41;69.39;96803.84;6177123;23;20132;-64
2021/09/09 12:20:11;;;;;;;0.20;0.20;;;;;;;10.36;69.75;96801.97;6182598;23;20323;-65
2021/09/09 12:23:38;;;;;;;0.20;0.20;;;;;;;10.32;69.73;96798.94;6182145;23;20013;-63
2021/09/09 12:33:42;;;;;;;0.22;0.22;;;;;;;10.30;69.94;96781.13;6179677;23;20039;-63
2021/09/09 12:43:15;;;;;;;0.25;0.25;;;;;;;10.33;69.98;96762.22;6174710;23;20082;-65
2021/09/09 12:49:44;;;;;;;0.10;0.10;;;;;;;10.33;70.07;96755.88;6175561;23;20023;-64
2021/09/09 12:52:50;;;;;;;0.20;0.20;;;;;;;10.32;70.37;96751.47;6181443;23;20020;-65
2021/09/09 12:55:35;;;;;;;;;;;;;;;10.29;70.23;96747.41;6182364;23;20412;-65
2021/09/09 13:02:03;;;;;;;0.10;0.10;;;;;;;10.27;70.16;96751.53;6174421;23;20024;-65
2021/09/09 13:04:49;;;;;;;;;;;;;;;10.24;70.28;96744.66;6182207;23;20009;-64
2021/09/09 13:24:48;;;;;;;0.10;0.10;;;;;;;10.15;70.56;96722.50;6178273;23;20083;-65
2021/09/09 13:27:53;;;;;;;0.15;0.15;;;;;;;10.12;70.80;96705.81;6174710;23;20099;-63
2021/09/09 13:30:39;;;;;;;;;;;;;;;10.07;70.59;96712.16;6181381;23;20446;-62
2021/09/09 13:39:52;;;;;;;0.20;0.20;;;;;;;9.97;70.76;96701.25;6180217;23;20035;-62
2021/09/09 13:42:18;;;;;;;0.13;0.13;;;;;;;9.97;71.00;96704.78;6182084;23;20088;-64
2021/09/09 13:44:44;;;;;;;0.10;0.10;;;;;;;9.98;70.88;96697.38;6182602;23;20025;-62
2021/09/09 13:47:11;;;;;;;0.17;0.17;;;;;;;9.99;71.06;96691.59;6181978;23;20400;-62
2021/09/09 13:49:37;;;;;;;0.52;0.52;;;;;;;10.00;70.87;96689.72;6182196;23;20012;-62
2021/09/09 13:52:03;;;;;;;0.10;0.10;;;;;;;10.02;70.80;96692.16;6182678;23;20041;-63
2021/09/09 13:55:09;;;;;;;0.25;0.25;;;;;;;10.05;70.89;96675.13;6181208;23;20079;-61
2021/09/09 13:57:39;;;;;;;0.22;0.22;;;;;;;10.03;71.04;96669.94;6181574;23;20013;-62
2021/09/09 14:00:07;;;;;;;0.10;0.10;;;;;;;10.03;70.87;96675.44;6180752;23;20074;-62